createdAt,value
2023-03-13T00:00:38.502Z,100324.17
2023-03-13T00:03:21.424Z,100307.09
2023-03-13T00:05:53.075Z,100302.80
2023-03-13T00:08:24.804Z,100304.38
2023-03-13T00:10:56.605Z,100297.32
2023-03-13T00:13:28.238Z,100295.46
2023-03-13T00:16:04.538Z,100295.10
2023-03-13T00:18:36.400Z,100292.65
2023-03-13T00:21:09.868Z,100292.58
2023-03-13T00:23:41.754Z,100282.48
2023-03-13T00:26:15.226Z,100282.20
2023-03-13T00:28:47.063Z,100281.60
2023-03-13T00:31:20.287Z,100278.09
2023-03-13T00:33:56.005Z,100276.34
2023-03-13T00:36:29.331Z,100275.43
2023-03-13T00:39:01.643Z,100271.80
2023-03-13T00:41:34.298Z,100265.76
2023-03-13T00:44:06.058Z,100272.31
2023-03-13T00:46:38.133Z,100274.95
2023-03-13T00:49:09.977Z,100275.67
2023-03-13T00:51:41.763Z,100277.80
2023-03-13T00:54:13.431Z,100275.73
2023-03-13T00:56:45.259Z,100277.40
2023-03-13T00:59:17.281Z,100277.20
2023-03-13T01:01:48.942Z,100280.05
2023-03-13T01:04:21.706Z,100275.67
2023-03-13T01:06:55.127Z,100275.98
2023-03-13T01:09:27.617Z,100271.94
2023-03-13T01:11:59.271Z,100264.34
2023-03-13T01:14:31.060Z,100260.75
2023-03-13T01:17:02.774Z,100252.52
2023-03-13T01:19:34.534Z,100251.69
2023-03-13T01:22:06.381Z,100246.21
2023-03-13T01:24:38.223Z,100240.06
2023-03-13T01:27:10.111Z,100237.87
2023-03-13T01:29:41.988Z,100233.25
2023-03-13T01:32:13.811Z,100233.95
2023-03-13T01:34:45.527Z,100237.20
2023-03-13T01:37:17.240Z,100234.33
2023-03-13T01:39:48.914Z,100232.65
2023-03-13T01:42:20.745Z,100232.02
2023-03-13T01:44:54.800Z,100233.48
2023-03-13T01:47:27.234Z,100231.66
2023-03-13T01:50:10.892Z,100225.05
2023-03-13T01:52:53.887Z,100225.05
2023-03-13T01:55:30.770Z,100218.19
2023-03-13T01:58:03.227Z,100213.91
2023-03-13T02:00:37.700Z,100210.84
2023-03-13T02:03:16.124Z,100204.88
2023-03-13T02:05:48.435Z,100202.86
2023-03-13T02:08:22.222Z,100208.08
2023-03-13T02:10:57.846Z,100212.55
2023-03-13T02:13:29.963Z,100215.77
2023-03-13T02:16:01.854Z,100209.29
2023-03-13T02:18:33.806Z,100207.56
2023-03-13T02:21:12.860Z,100204.66
2023-03-13T02:23:49.010Z,100209.85
2023-03-13T02:26:20.942Z,100198.55
2023-03-13T02:28:52.695Z,100192.93
2023-03-13T02:31:25.519Z,100188.92
2023-03-13T02:33:57.678Z,100187.70
2023-03-13T02:36:30.058Z,100183.09
2023-03-13T02:39:04.553Z,100190.33
2023-03-13T02:41:37.017Z,100188.27
2023-03-13T02:44:09.015Z,100188.63
2023-03-13T02:46:50.296Z,100190.37
2023-03-13T02:49:27.450Z,100191.04
2023-03-13T02:52:01.352Z,100182.85
2023-03-13T02:54:35.301Z,100179.11
2023-03-13T02:57:08.052Z,100186.92
2023-03-13T02:59:39.859Z,100183.92
2023-03-13T03:02:11.594Z,100185.90
2023-03-13T03:04:43.438Z,100186.55
2023-03-13T03:07:15.924Z,100185.52
2023-03-13T03:09:47.981Z,100180.02
2023-03-13T03:12:21.313Z,100180.21
2023-03-13T03:14:53.059Z,100178.16
2023-03-13T03:17:25.122Z,100176.29
2023-03-13T03:19:58.444Z,100175.95
2023-03-13T03:22:30.261Z,100180.30
2023-03-13T03:25:01.950Z,100182.84
2023-03-13T03:27:36.426Z,100182.23
2023-03-13T03:30:11.574Z,100176.92
2023-03-13T03:32:43.536Z,100176.95
2023-03-13T03:35:15.446Z,100174.76
2023-03-13T03:37:47.156Z,100176.38
2023-03-13T03:40:20.524Z,100179.10
2023-03-13T03:42:52.185Z,100174.76
2023-03-13T03:45:24.274Z,100174.96
2023-03-13T03:47:59.759Z,100178.34
2023-03-13T03:50:31.904Z,100172.91
2023-03-13T03:53:05.213Z,100181.77
2023-03-13T03:55:36.976Z,100177.66
2023-03-13T03:58:08.793Z,100177.30
2023-03-13T04:00:58.872Z,100170.30
2023-03-13T04:03:31.045Z,100163.90
2023-03-13T04:06:03.165Z,100158.23
2023-03-13T04:08:34.927Z,100153.98
2023-03-13T04:11:07.653Z,100150.29
2023-03-13T04:13:42.645Z,100149.52
2023-03-13T04:16:14.713Z,100146.36
2023-03-13T04:18:47.289Z,100144.30
2023-03-13T04:21:19.938Z,100141.73
2023-03-13T04:23:56.415Z,100138.17
2023-03-13T04:26:28.973Z,100135.29
2023-03-13T04:29:02.648Z,100136.98
2023-03-13T04:31:57.469Z,100131.37
2023-03-13T04:35:00.797Z,100127.26
2023-03-13T04:37:43.763Z,100126.96
2023-03-13T04:40:35.785Z,100123.57
2023-03-13T04:43:27.492Z,100129.09
2023-03-13T04:46:09.420Z,100121.36
2023-03-13T04:48:41.118Z,100112.91
2023-03-13T04:51:43.691Z,100106.95
2023-03-13T04:54:41.719Z,100101.16
2023-03-13T04:57:23.448Z,100100.48
2023-03-13T05:00:00.527Z,100102.70
2023-03-13T05:02:44.808Z,100105.42
2023-03-13T05:05:46.088Z,100106.25
2023-03-13T05:08:41.312Z,100102.14
2023-03-13T05:11:34.016Z,100094.06
2023-03-13T05:14:26.058Z,100090.46
2023-03-13T05:17:13.361Z,100092.54
2023-03-13T05:20:04.227Z,100090.81
2023-03-13T05:22:54.215Z,100090.52
2023-03-13T05:25:54.800Z,100087.41
2023-03-13T05:28:35.409Z,100089.06
2023-03-13T05:31:25.693Z,100087.58
2023-03-13T05:34:00.238Z,100085.20
2023-03-13T05:36:59.073Z,100089.55
2023-03-13T05:39:48.885Z,100080.51
2023-03-13T05:42:40.924Z,100088.08
2023-03-13T05:45:47.911Z,100090.45
2023-03-13T05:48:38.083Z,100091.98
2023-03-13T05:51:20.806Z,100091.73
2023-03-13T05:54:00.852Z,100096.44
2023-03-13T05:56:52.163Z,100099.04
2023-03-13T05:59:49.798Z,100102.40
2023-03-13T06:02:40.151Z,100104.67
2023-03-13T06:05:13.531Z,100107.21
2023-03-13T06:07:45.287Z,100104.77
2023-03-13T06:10:17.474Z,100105.22
2023-03-13T06:12:54.924Z,100099.70
2023-03-13T06:15:28.547Z,100085.56
2023-03-13T06:18:04.299Z,100081.45
2023-03-13T06:20:36.056Z,100077.25
2023-03-13T06:23:07.774Z,100080.56
2023-03-13T06:25:39.750Z,100083.13
2023-03-13T06:28:11.380Z,100087.95
2023-03-13T06:30:43.156Z,100090.17
2023-03-13T06:33:14.986Z,100077.98
2023-03-13T06:35:56.292Z,100079.40
2023-03-13T06:38:28.831Z,100074.41
2023-03-13T06:41:00.610Z,100076.13
2023-03-13T06:43:32.530Z,100078.62
2023-03-13T06:46:07.511Z,100077.76
2023-03-13T06:48:39.377Z,100076.02
2023-03-13T06:51:14.816Z,100070.15
2023-03-13T06:53:47.320Z,100066.73
2023-03-13T06:56:19.137Z,100070.33
2023-03-13T06:58:51.115Z,100066.42
2023-03-13T07:01:23.214Z,100061.77
2023-03-13T07:03:55.144Z,100060.17
2023-03-13T07:06:27.065Z,100063.23
2023-03-13T07:08:58.796Z,100060.00
2023-03-13T07:11:30.553Z,100061.31
2023-03-13T07:14:15.173Z,100056.31
2023-03-13T07:16:48.323Z,100052.89
2023-03-13T07:19:20.263Z,100047.64
2023-03-13T07:21:53.084Z,100045.23
2023-03-13T07:24:24.872Z,100045.60
2023-03-13T07:27:06.183Z,100048.05
2023-03-13T07:29:39.089Z,100042.96
2023-03-13T07:32:11.037Z,100045.30
2023-03-13T07:34:44.632Z,100047.83
2023-03-13T07:37:17.187Z,100046.58
2023-03-13T07:39:48.893Z,100043.41
2023-03-13T07:42:20.529Z,100035.89
2023-03-13T07:44:52.190Z,100031.84
2023-03-13T07:47:24.052Z,100029.36
2023-03-13T07:49:55.739Z,100032.05
2023-03-13T07:52:28.033Z,100028.65
2023-03-13T07:54:59.757Z,100022.23
2023-03-13T07:57:31.729Z,100016.30
2023-03-13T08:00:04.485Z,100015.70
2023-03-13T08:02:43.898Z,100010.27
2023-03-13T08:05:15.659Z,100009.67
2023-03-13T08:07:48.176Z,100012.48
2023-03-13T08:10:20.093Z,100013.59
2023-03-13T08:12:51.768Z,100011.83
2023-03-13T08:15:26.146Z,100005.52
2023-03-13T08:17:58.090Z,100007.09
2023-03-13T08:20:29.883Z,100002.77
2023-03-13T08:23:01.553Z,100004.04
2023-03-13T08:25:33.221Z,100003.84
2023-03-13T08:28:04.959Z,99999.72
2023-03-13T08:30:36.764Z,99999.45
2023-03-13T08:33:08.606Z,99998.29
2023-03-13T08:35:40.353Z,99994.69
2023-03-13T08:38:12.080Z,99991.98
2023-03-13T08:40:43.804Z,99993.55
2023-03-13T08:43:15.463Z,99993.36
2023-03-13T08:45:47.229Z,99990.88
2023-03-13T08:48:18.916Z,99985.17
2023-03-13T08:50:58.986Z,99979.66
2023-03-13T08:53:30.693Z,99973.77
2023-03-13T08:56:03.153Z,99964.57
2023-03-13T08:58:35.047Z,99961.90
2023-03-13T09:01:08.126Z,99955.25
2023-03-13T09:03:40.200Z,99949.94
2023-03-13T09:06:12.660Z,99945.15
2023-03-13T09:08:46.179Z,99939.55
2023-03-13T09:11:20.995Z,99936.38
2023-03-13T09:13:55.045Z,99930.64
2023-03-13T09:16:28.809Z,99929.84
2023-03-13T09:19:01.158Z,99919.02
2023-03-13T09:21:34.910Z,99921.13
2023-03-13T09:24:07.375Z,99915.65
2023-03-13T09:26:42.664Z,99907.48
2023-03-13T09:29:18.313Z,99898.31
2023-03-13T09:31:50.029Z,99891.52
2023-03-13T09:34:23.377Z,99889.11
2023-03-13T09:36:55.062Z,99887.16
2023-03-13T09:39:26.925Z,99882.26
2023-03-13T09:42:07.760Z,99880.36
2023-03-13T09:44:43.722Z,99882.55
2023-03-13T09:47:21.753Z,99874.66
2023-03-13T09:49:56.862Z,99868.50
2023-03-13T09:52:30.287Z,99861.23
2023-03-13T09:55:05.798Z,99857.63
2023-03-13T09:57:39.411Z,99853.27
2023-03-13T10:00:17.647Z,99853.38
2023-03-13T10:02:53.402Z,99848.67
2023-03-13T10:05:27.525Z,99843.34
2023-03-13T10:08:03.184Z,99843.98
2023-03-13T10:10:43.406Z,99840.13
2023-03-13T10:13:22.388Z,99830.08
2023-03-13T10:15:57.251Z,99825.81
2023-03-13T10:18:29.046Z,99824.89
2023-03-13T10:21:02.842Z,99822.02
2023-03-13T10:23:41.576Z,99822.76
2023-03-13T10:26:18.587Z,99814.89
2023-03-13T10:28:50.286Z,99813.78
2023-03-13T10:31:27.361Z,99812.37
2023-03-13T10:34:08.594Z,99811.96
2023-03-13T10:36:46.102Z,99816.42
2023-03-13T10:39:20.709Z,99817.92
2023-03-13T10:41:57.418Z,99813.46
2023-03-13T10:44:33.471Z,99807.45
2023-03-13T10:47:06.195Z,99803.11
2023-03-13T10:49:50.155Z,99798.20
2023-03-13T10:52:44.986Z,99794.00
2023-03-13T10:55:20.916Z,99786.30
2023-03-13T10:58:01.285Z,99784.17
2023-03-13T11:00:37.129Z,99770.05
2023-03-13T11:03:15.196Z,99770.92
2023-03-13T11:05:55.582Z,99767.21
2023-03-13T11:08:29.003Z,99759.93
2023-03-13T11:11:03.114Z,99752.63
2023-03-13T11:13:38.129Z,99754.65
2023-03-13T11:16:21.161Z,99751.71
2023-03-13T11:19:07.749Z,99747.23
2023-03-13T11:21:43.766Z,99745.17
2023-03-13T11:24:19.790Z,99738.78
2023-03-13T11:27:04.591Z,99726.67
2023-03-13T11:29:43.738Z,99726.80
2023-03-13T11:32:24.195Z,99726.15
2023-03-13T11:34:55.673Z,99713.80
2023-03-13T11:37:29.038Z,99709.55
2023-03-13T11:40:08.195Z,99700.26
2023-03-13T11:42:50.290Z,99690.36
2023-03-13T11:45:33.256Z,99684.05
2023-03-13T11:48:09.176Z,99679.67
2023-03-13T11:50:47.460Z,99668.29
2023-03-13T11:53:41.972Z,99661.42
2023-03-13T11:56:18.231Z,99652.39
2023-03-13T11:59:00.637Z,99644.09
2023-03-13T12:01:35.672Z,99646.88
2023-03-13T12:04:13.005Z,99637.59
2023-03-13T12:06:47.319Z,99637.39
2023-03-13T12:09:18.532Z,99633.60
2023-03-13T12:11:59.578Z,99630.81
2023-03-13T12:14:34.634Z,99630.73
2023-03-13T12:17:09.763Z,99630.91
2023-03-13T12:19:48.278Z,99633.80
2023-03-13T12:22:24.605Z,99631.44
2023-03-13T12:24:59.551Z,99633.23
2023-03-13T12:27:34.564Z,99631.98
2023-03-13T12:30:12.829Z,99628.61
2023-03-13T12:32:49.685Z,99622.59
2023-03-13T12:35:25.482Z,99613.54
2023-03-13T12:38:03.141Z,99613.23
2023-03-13T12:40:39.064Z,99609.59
2023-03-13T12:43:15.872Z,99604.41
2023-03-13T12:46:05.610Z,99605.57
2023-03-13T12:48:58.927Z,99608.80
2023-03-13T12:51:42.288Z,99603.79
2023-03-13T12:54:23.610Z,99597.56
2023-03-13T12:57:04.728Z,99600.95
2023-03-13T12:59:40.740Z,99590.14
2023-03-13T13:02:19.053Z,99588.09
2023-03-13T13:04:51.795Z,99586.34
2023-03-13T13:07:27.604Z,99586.44
2023-03-13T13:10:19.949Z,99578.09
2023-03-13T13:13:21.219Z,99571.21
2023-03-13T13:16:02.874Z,99571.40
2023-03-13T13:18:35.449Z,99569.08
2023-03-13T13:21:26.514Z,99564.92
2023-03-13T13:24:31.793Z,99567.52
2023-03-13T13:27:03.504Z,99567.59
2023-03-13T13:30:01.424Z,99564.44
2023-03-13T13:32:36.494Z,99565.71
2023-03-13T13:35:25.382Z,99561.36
2023-03-13T13:38:28.126Z,99563.13
2023-03-13T13:41:05.602Z,99562.48
2023-03-13T13:43:38.438Z,99550.91
2023-03-13T13:46:24.678Z,99550.50
2023-03-13T13:49:13.224Z,99554.98
2023-03-13T13:51:45.285Z,99557.27
2023-03-13T13:54:35.626Z,99556.27
2023-03-13T13:57:12.058Z,99556.81
2023-03-13T13:59:45.709Z,99549.81
2023-03-13T14:02:20.947Z,99547.56
2023-03-13T14:04:56.273Z,99542.48
2023-03-13T14:07:31.966Z,99540.84
2023-03-13T14:10:23.017Z,99536.23
2023-03-13T14:12:56.898Z,99538.20
2023-03-13T14:15:30.688Z,99536.73
2023-03-13T14:18:12.096Z,99526.55
2023-03-13T14:20:54.828Z,99510.20
2023-03-13T14:23:35.667Z,99501.00
2023-03-13T14:26:14.767Z,99497.86
2023-03-13T14:28:48.176Z,99497.66
2023-03-13T14:31:31.581Z,99499.31
2023-03-13T14:34:05.193Z,99489.90
2023-03-13T14:36:50.583Z,99486.73
2023-03-13T14:39:37.672Z,99486.64
2023-03-13T14:42:13.403Z,99488.88
2023-03-13T14:44:47.417Z,99489.46
2023-03-13T14:47:24.712Z,99475.03
2023-03-13T14:50:01.368Z,99474.17
2023-03-13T14:52:34.345Z,99466.90
2023-03-13T14:55:07.944Z,99465.77
2023-03-13T14:57:42.066Z,99459.27
2023-03-13T15:00:34.738Z,99451.09
2023-03-13T15:03:25.696Z,99440.69
2023-03-13T15:06:12.964Z,99431.81
2023-03-13T15:08:45.764Z,99427.36
2023-03-13T15:11:23.714Z,99426.96
2023-03-13T15:13:56.161Z,99425.70
2023-03-13T15:16:28.960Z,99425.13
2023-03-13T15:19:01.047Z,99428.95
2023-03-13T15:21:34.168Z,99424.79
2023-03-13T15:24:15.270Z,99424.05
2023-03-13T15:26:49.006Z,99428.92
2023-03-13T15:29:21.354Z,99420.38
2023-03-13T15:31:53.170Z,99413.27
2023-03-13T15:34:25.582Z,99415.20
2023-03-13T15:36:57.275Z,99413.38
2023-03-13T15:39:29.776Z,99410.35
2023-03-13T15:42:01.501Z,99409.70
2023-03-13T15:44:33.168Z,99409.38
2023-03-13T15:47:04.919Z,99409.09
2023-03-13T15:49:36.593Z,99412.28
2023-03-13T15:52:11.935Z,99408.08
2023-03-13T15:54:43.571Z,99411.17
2023-03-13T15:57:16.534Z,99408.92
2023-03-13T15:59:48.253Z,99408.44
2023-03-13T16:02:21.716Z,99408.21
2023-03-13T16:04:55.614Z,99409.48
2023-03-13T16:07:27.338Z,99408.50
2023-03-13T16:09:59.071Z,99408.66
2023-03-13T16:12:30.892Z,99406.54
2023-03-13T16:15:02.784Z,99411.11
2023-03-13T16:17:34.624Z,99406.34
2023-03-13T16:20:10.574Z,99408.13
2023-03-13T16:22:42.271Z,99411.49
2023-03-13T16:25:14.646Z,99410.66
2023-03-13T16:27:46.340Z,99411.66
2023-03-13T16:30:20.533Z,99414.35
2023-03-13T16:32:52.499Z,99416.61
2023-03-13T16:35:26.684Z,99416.11
2023-03-13T16:37:59.086Z,99419.17
2023-03-13T16:40:33.316Z,99414.98
2023-03-13T16:43:05.177Z,99414.50
2023-03-13T16:45:37.161Z,99415.98
2023-03-13T16:48:23.669Z,99421.09
2023-03-13T16:50:55.349Z,99420.45
2023-03-13T16:53:27.177Z,99420.39
2023-03-13T16:55:59.032Z,99417.62
2023-03-13T16:58:30.773Z,99417.09
2023-03-13T17:01:05.958Z,99418.20
2023-03-13T17:03:38.034Z,99416.73
2023-03-13T17:06:16.304Z,99414.29
2023-03-13T17:08:48.080Z,99413.20
2023-03-13T17:11:24.057Z,99418.15
2023-03-13T17:13:56.149Z,99423.27
2023-03-13T17:16:33.172Z,99424.58
2023-03-13T17:19:06.592Z,99428.35
2023-03-13T17:21:38.432Z,99428.49
2023-03-13T17:24:10.918Z,99425.11
2023-03-13T17:26:42.588Z,99426.48
2023-03-13T17:29:17.429Z,99424.89
2023-03-13T17:31:49.186Z,99422.67
2023-03-13T17:34:21.119Z,99424.16
2023-03-13T17:36:52.798Z,99423.23
2023-03-13T17:39:24.951Z,99428.13
2023-03-13T17:41:57.626Z,99432.84
2023-03-13T17:44:29.393Z,99431.48
2023-03-13T17:47:01.097Z,99432.89
2023-03-13T17:49:32.832Z,99429.16
2023-03-13T17:52:04.638Z,99431.39
2023-03-13T17:54:36.344Z,99429.69
2023-03-13T17:57:13.586Z,99427.30
2023-03-13T17:59:45.422Z,99425.07
2023-03-13T18:02:18.150Z,99420.70
2023-03-13T18:04:49.841Z,99418.14
2023-03-13T18:07:25.406Z,99416.41
2023-03-13T18:09:57.279Z,99411.05
2023-03-13T18:12:29.052Z,99409.17
2023-03-13T18:15:00.747Z,99407.55
2023-03-13T18:17:32.805Z,99402.38
2023-03-13T18:20:05.103Z,99406.84
2023-03-13T18:22:36.878Z,99402.27
2023-03-13T18:25:10.411Z,99396.40
2023-03-13T18:27:42.469Z,99393.19
2023-03-13T18:30:18.164Z,99388.53
2023-03-13T18:32:50.182Z,99387.91
2023-03-13T18:35:22.075Z,99391.23
2023-03-13T18:37:53.754Z,99388.73
2023-03-13T18:40:28.610Z,99391.91
2023-03-13T18:43:00.351Z,99392.41
2023-03-13T18:45:32.134Z,99388.44
2023-03-13T18:48:03.912Z,99386.23
2023-03-13T18:50:35.543Z,99386.91
2023-03-13T18:53:07.236Z,99384.42
2023-03-13T18:55:39.035Z,99386.98
2023-03-13T18:58:12.437Z,99384.08
2023-03-13T19:00:44.481Z,99379.11
2023-03-13T19:03:20.230Z,99380.77
2023-03-13T19:05:52.220Z,99378.60
2023-03-13T19:08:24.091Z,99372.94
2023-03-13T19:10:55.796Z,99372.15
2023-03-13T19:13:27.713Z,99364.75
2023-03-13T19:15:59.535Z,99363.24
2023-03-13T19:18:31.319Z,99358.89
2023-03-13T19:21:02.979Z,99356.58
2023-03-13T19:23:34.719Z,99349.02
2023-03-13T19:26:11.000Z,99344.86
2023-03-13T19:28:42.831Z,99346.05
2023-03-13T19:31:15.311Z,99346.14
2023-03-13T19:33:48.537Z,99347.08
2023-03-13T19:36:22.334Z,99342.74
2023-03-13T19:38:54.218Z,99337.03
2023-03-13T19:41:26.189Z,99348.89
2023-03-13T19:43:57.914Z,99356.02
2023-03-13T19:46:30.703Z,99360.88
2023-03-13T19:49:03.329Z,99357.67
2023-03-13T19:51:35.628Z,99368.02
2023-03-13T19:54:07.725Z,99369.04
2023-03-13T19:56:40.289Z,99363.61
2023-03-13T19:59:16.254Z,99363.92
2023-03-13T20:01:48.353Z,99366.80
2023-03-13T20:04:20.412Z,99362.61
2023-03-13T20:06:52.275Z,99364.16
2023-03-13T20:09:26.133Z,99373.35
2023-03-13T20:11:57.766Z,99381.75
2023-03-13T20:14:29.657Z,99368.40
2023-03-13T20:17:01.518Z,99356.45
2023-03-13T20:19:33.249Z,99360.34
2023-03-13T20:22:05.359Z,99360.29
2023-03-13T20:24:38.827Z,99366.42
2023-03-13T20:27:10.627Z,99370.25
2023-03-13T20:29:42.493Z,99375.64
2023-03-13T20:32:15.698Z,99369.77
2023-03-13T20:34:47.370Z,99371.14
2023-03-13T20:37:19.210Z,99365.65
2023-03-13T20:39:50.928Z,99360.86
2023-03-13T20:42:22.737Z,99359.24
2023-03-13T20:44:55.423Z,99361.25
2023-03-13T20:47:27.318Z,99363.30
2023-03-13T20:49:59.036Z,99360.72
2023-03-13T20:52:30.990Z,99354.55
2023-03-13T20:55:03.169Z,99352.89
2023-03-13T20:57:35.116Z,99351.19
2023-03-13T21:00:09.140Z,99345.94
2023-03-13T21:02:40.950Z,99343.54
2023-03-13T21:05:12.998Z,99343.14
2023-03-13T21:07:44.763Z,99333.92
2023-03-13T21:10:18.173Z,99333.88
2023-03-13T21:12:50.151Z,99334.11
2023-03-13T21:15:21.984Z,99334.15
2023-03-13T21:17:53.851Z,99335.50
2023-03-13T21:20:26.199Z,99328.89
2023-03-13T21:22:58.001Z,99322.30
2023-03-13T21:25:29.809Z,99315.44
2023-03-13T21:28:01.525Z,99316.75
2023-03-13T21:30:33.247Z,99312.89
2023-03-13T21:33:05.018Z,99314.70
2023-03-13T21:35:36.948Z,99314.06
2023-03-13T21:38:08.726Z,99312.90
2023-03-13T21:40:41.697Z,99318.60
2023-03-13T21:43:13.500Z,99317.98
2023-03-13T21:45:45.477Z,99316.50
2023-03-13T21:48:17.353Z,99319.46
2023-03-13T21:50:49.040Z,99321.54
2023-03-13T21:53:20.702Z,99309.46
2023-03-13T21:55:53.277Z,99302.67
2023-03-13T21:58:25.131Z,99300.09
2023-03-13T22:00:57.607Z,99289.45
2023-03-13T22:03:31.746Z,99286.50
2023-03-13T22:06:04.036Z,99285.34
2023-03-13T22:08:38.040Z,99289.35
2023-03-13T22:11:11.234Z,99284.30
2023-03-13T22:13:45.359Z,99274.94
2023-03-13T22:16:17.409Z,99272.95
2023-03-13T22:18:49.718Z,99273.52
2023-03-13T22:21:22.071Z,99263.02
2023-03-13T22:23:53.985Z,99269.44
2023-03-13T22:26:25.976Z,99259.14
2023-03-13T22:28:57.834Z,99258.69
2023-03-13T22:31:29.717Z,99257.44
2023-03-13T22:34:01.450Z,99267.27
2023-03-13T22:36:33.096Z,99268.42
2023-03-13T22:39:04.885Z,99262.62
2023-03-13T22:41:36.629Z,99270.27
2023-03-13T22:44:08.446Z,99265.40
2023-03-13T22:46:40.415Z,99264.02
2023-03-13T22:49:12.226Z,99261.02
2023-03-13T22:51:44.772Z,99257.73
2023-03-13T22:54:16.810Z,99257.19
2023-03-13T22:56:49.228Z,99252.85
2023-03-13T22:59:20.957Z,99257.40
2023-03-13T23:01:53.027Z,99238.44
2023-03-13T23:04:24.896Z,99241.14
2023-03-13T23:06:56.641Z,99241.37
2023-03-13T23:09:28.422Z,99231.17
2023-03-13T23:12:00.115Z,99236.95
2023-03-13T23:14:31.858Z,99235.04
2023-03-13T23:17:03.844Z,99240.95
2023-03-13T23:19:37.673Z,99239.64
2023-03-13T23:22:09.567Z,99234.40
2023-03-13T23:24:41.304Z,99239.69
2023-03-13T23:27:13.182Z,99243.92
2023-03-13T23:29:44.946Z,99237.77
2023-03-13T23:32:16.916Z,99246.10
2023-03-13T23:34:48.672Z,99244.73
2023-03-13T23:37:20.346Z,99243.73
2023-03-13T23:39:52.036Z,99239.32
2023-03-13T23:42:23.819Z,99240.86
2023-03-13T23:44:55.538Z,99237.45
2023-03-13T23:47:28.455Z,99229.02
2023-03-13T23:50:00.438Z,99226.95
2023-03-13T23:52:34.186Z,99233.39
2023-03-13T23:55:07.569Z,99221.05
2023-03-13T23:57:39.656Z,99227.35
